sensor_id;sensor_type;location;lat;lon;timestamp;temperature;humidity
28247;DHT22;66191;53.178;22.058;2023-05-27T00:00:02;9.80;95.50
28247;DHT22;66191;53.178;22.058;2023-05-27T00:02:54;9.70;94.60
28247;DHT22;66191;53.178;22.058;2023-05-27T00:05:28;9.70;94.70
28247;DHT22;66191;53.178;22.058;2023-05-27T00:08:00;9.60;94.80
28247;DHT22;66191;53.178;22.058;2023-05-27T00:10:30;9.50;95.00
28247;DHT22;66191;53.178;22.058;2023-05-27T00:13:02;9.50;95.10
28247;DHT22;66191;53.178;22.058;2023-05-27T00:15:33;9.40;95.20
28247;DHT22;66191;53.178;22.058;2023-05-27T00:18:05;9.40;95.40
28247;DHT22;66191;53.178;22.058;2023-05-27T00:20:42;9.30;95.60
28247;DHT22;66191;53.178;22.058;2023-05-27T00:23:14;9.30;95.80
28247;DHT22;66191;53.178;22.058;2023-05-27T00:25:45;9.20;95.90
28247;DHT22;66191;53.178;22.058;2023-05-27T00:28:17;9.20;96.00
28247;DHT22;66191;53.178;22.058;2023-05-27T00:30:49;9.20;96.10
28247;DHT22;66191;53.178;22.058;2023-05-27T00:33:20;9.20;96.10
28247;DHT22;66191;53.178;22.058;2023-05-27T00:35:54;9.20;96.10
28247;DHT22;66191;53.178;22.058;2023-05-27T00:38:26;9.20;96.20
28247;DHT22;66191;53.178;22.058;2023-05-27T00:41:00;9.20;96.20
28247;DHT22;66191;53.178;22.058;2023-05-27T00:43:32;9.20;96.20
28247;DHT22;66191;53.178;22.058;2023-05-27T00:46:02;9.20;96.30
28247;DHT22;66191;53.178;22.058;2023-05-27T00:48:34;9.10;97.10
28247;DHT22;66191;53.178;22.058;2023-05-27T00:51:08;9.10;96.40
28247;DHT22;66191;53.178;22.058;2023-05-27T00:53:41;9.10;96.40
28247;DHT22;66191;53.178;22.058;2023-05-27T00:56:13;9.10;96.60
28247;DHT22;66191;53.178;22.058;2023-05-27T00:58:45;9.00;96.60
28247;DHT22;66191;53.178;22.058;2023-05-27T01:01:18;9.00;96.60
28247;DHT22;66191;53.178;22.058;2023-05-27T01:03:54;9.00;96.70
28247;DHT22;66191;53.178;22.058;2023-05-27T01:06:35;9.00;97.00
28247;DHT22;66191;53.178;22.058;2023-05-27T01:09:15;9.00;96.80
28247;DHT22;66191;53.178;22.058;2023-05-27T01:11:58;8.80;96.80
28247;DHT22;66191;53.178;22.058;2023-05-27T01:14:32;8.80;97.10
28247;DHT22;66191;53.178;22.058;2023-05-27T01:17:05;8.70;97.10
28247;DHT22;66191;53.178;22.058;2023-05-27T01:19:41;8.70;97.20
28247;DHT22;66191;53.178;22.058;2023-05-27T01:22:15;8.70;97.30
28247;DHT22;66191;53.178;22.058;2023-05-27T01:24:52;8.70;97.20
28247;DHT22;66191;53.178;22.058;2023-05-27T01:27:24;8.70;97.40
28247;DHT22;66191;53.178;22.058;2023-05-27T01:29:56;8.70;97.30
28247;DHT22;66191;53.178;22.058;2023-05-27T01:32:32;8.70;97.30
28247;DHT22;66191;53.178;22.058;2023-05-27T01:35:09;8.70;97.40
28247;DHT22;66191;53.178;22.058;2023-05-27T01:37:46;8.70;97.40
28247;DHT22;66191;53.178;22.058;2023-05-27T01:40:21;8.60;97.50
28247;DHT22;66191;53.178;22.058;2023-05-27T01:42:53;8.60;97.60
28247;DHT22;66191;53.178;22.058;2023-05-27T01:45:27;8.50;97.90
28247;DHT22;66191;53.178;22.058;2023-05-27T01:48:00;8.40;98.00
28247;DHT22;66191;53.178;22.058;2023-05-27T01:50:31;8.40;98.10
28247;DHT22;66191;53.178;22.058;2023-05-27T01:53:11;8.40;98.20
28247;DHT22;66191;53.178;22.058;2023-05-27T01:55:46;8.40;98.20
28247;DHT22;66191;53.178;22.058;2023-05-27T01:58:17;8.30;98.30
28247;DHT22;66191;53.178;22.058;2023-05-27T02:00:49;8.30;98.50
28247;DHT22;66191;53.178;22.058;2023-05-27T02:03:24;8.30;98.90
28247;DHT22;66191;53.178;22.058;2023-05-27T02:05:55;8.30;98.60
28247;DHT22;66191;53.178;22.058;2023-05-27T02:08:27;8.30;98.70
28247;DHT22;66191;53.178;22.058;2023-05-27T02:11:01;8.30;98.80
28247;DHT22;66191;53.178;22.058;2023-05-27T02:13:32;8.20;98.90
28247;DHT22;66191;53.178;22.058;2023-05-27T02:16:05;8.20;99.10
28247;DHT22;66191;53.178;22.058;2023-05-27T02:18:36;8.10;99.30
28247;DHT22;66191;53.178;22.058;2023-05-27T02:21:09;8.10;99.50
28247;DHT22;66191;53.178;22.058;2023-05-27T02:23:40;8.10;99.90
28247;DHT22;66191;53.178;22.058;2023-05-27T02:26:14;8.00;99.90
28247;DHT22;66191;53.178;22.058;2023-05-27T02:28:45;8.00;99.90
28247;DHT22;66191;53.178;22.058;2023-05-27T02:31:18;8.00;99.90
28247;DHT22;66191;53.178;22.058;2023-05-27T02:33:49;8.00;99.90
28247;DHT22;66191;53.178;22.058;2023-05-27T02:36:20;8.00;99.90
28247;DHT22;66191;53.178;22.058;2023-05-27T02:38:51;8.10;99.90
28247;DHT22;66191;53.178;22.058;2023-05-27T02:41:26;8.10;99.90
28247;DHT22;66191;53.178;22.058;2023-05-27T02:43:57;8.10;99.90
28247;DHT22;66191;53.178;22.058;2023-05-27T02:46:28;8.20;99.90
28247;DHT22;66191;53.178;22.058;2023-05-27T02:48:59;8.20;99.90
28247;DHT22;66191;53.178;22.058;2023-05-27T02:51:33;8.20;99.90
28247;DHT22;66191;53.178;22.058;2023-05-27T02:54:04;8.30;99.90
28247;DHT22;66191;53.178;22.058;2023-05-27T02:56:38;8.30;99.90
28247;DHT22;66191;53.178;22.058;2023-05-27T02:59:12;8.40;99.90
28247;DHT22;66191;53.178;22.058;2023-05-27T03:01:44;8.40;99.90
28247;DHT22;66191;53.178;22.058;2023-05-27T03:04:16;8.50;99.90
28247;DHT22;66191;53.178;22.058;2023-05-27T03:06:49;8.60;99.90
28247;DHT22;66191;53.178;22.058;2023-05-27T03:09:20;8.70;99.90
28247;DHT22;66191;53.178;22.058;2023-05-27T03:11:54;8.80;99.90
28247;DHT22;66191;53.178;22.058;2023-05-27T03:14:25;9.00;99.90
28247;DHT22;66191;53.178;22.058;2023-05-27T03:16:57;9.10;99.80
28247;DHT22;66191;53.178;22.058;2023-05-27T03:19:31;9.20;99.70
28247;DHT22;66191;53.178;22.058;2023-05-27T03:22:04;9.30;99.60
28247;DHT22;66191;53.178;22.058;2023-05-27T03:24:35;9.30;99.40
28247;DHT22;66191;53.178;22.058;2023-05-27T03:27:09;9.40;99.30
28247;DHT22;66191;53.178;22.058;2023-05-27T03:29:44;9.50;99.00
28247;DHT22;66191;53.178;22.058;2023-05-27T03:32:15;9.50;98.90
28247;DHT22;66191;53.178;22.058;2023-05-27T03:34:49;9.50;98.70
28247;DHT22;66191;53.178;22.058;2023-05-27T03:37:21;9.50;98.80
28247;DHT22;66191;53.178;22.058;2023-05-27T03:40:00;9.50;98.60
28247;DHT22;66191;53.178;22.058;2023-05-27T03:42:35;9.50;98.50
28247;DHT22;66191;53.178;22.058;2023-05-27T03:45:07;9.50;98.60
28247;DHT22;66191;53.178;22.058;2023-05-27T03:47:41;9.60;98.50
28247;DHT22;66191;53.178;22.058;2023-05-27T03:50:14;9.70;98.30
28247;DHT22;66191;53.178;22.058;2023-05-27T03:52:47;9.80;98.30
28247;DHT22;66191;53.178;22.058;2023-05-27T03:55:18;9.90;98.30
28247;DHT22;66191;53.178;22.058;2023-05-27T03:57:54;10.00;98.10
28247;DHT22;66191;53.178;22.058;2023-05-27T04:00:25;10.10;97.90
28247;DHT22;66191;53.178;22.058;2023-05-27T04:02:58;10.20;97.80
28247;DHT22;66191;53.178;22.058;2023-05-27T04:05:30;10.30;97.40
28247;DHT22;66191;53.178;22.058;2023-05-27T04:08:05;10.40;97.20
28247;DHT22;66191;53.178;22.058;2023-05-27T04:10:36;10.50;97.20
28247;DHT22;66191;53.178;22.058;2023-05-27T04:13:10;10.70;97.20
28247;DHT22;66191;53.178;22.058;2023-05-27T04:15:41;10.80;96.90
28247;DHT22;66191;53.178;22.058;2023-05-27T04:18:15;10.90;96.50
28247;DHT22;66191;53.178;22.058;2023-05-27T04:20:46;11.10;96.40
28247;DHT22;66191;53.178;22.058;2023-05-27T04:23:19;11.20;96.20
28247;DHT22;66191;53.178;22.058;2023-05-27T04:25:52;11.20;95.70
28247;DHT22;66191;53.178;22.058;2023-05-27T04:28:32;11.30;95.90
28247;DHT22;66191;53.178;22.058;2023-05-27T04:31:05;11.40;95.80
28247;DHT22;66191;53.178;22.058;2023-05-27T04:33:49;11.50;95.30
28247;DHT22;66191;53.178;22.058;2023-05-27T04:36:26;11.50;95.30
28247;DHT22;66191;53.178;22.058;2023-05-27T04:39:03;11.60;95.30
28247;DHT22;66191;53.178;22.058;2023-05-27T04:41:36;11.70;95.20
28247;DHT22;66191;53.178;22.058;2023-05-27T04:44:20;11.80;94.80
28247;DHT22;66191;53.178;22.058;2023-05-27T04:46:51;11.90;94.70
28247;DHT22;66191;53.178;22.058;2023-05-27T04:49:23;11.90;94.50
28247;DHT22;66191;53.178;22.058;2023-05-27T04:51:58;11.90;94.20
28247;DHT22;66191;53.178;22.058;2023-05-27T04:54:30;11.80;94.40
28247;DHT22;66191;53.178;22.058;2023-05-27T04:57:07;11.80;94.40
28247;DHT22;66191;53.178;22.058;2023-05-27T04:59:41;11.80;94.30
28247;DHT22;66191;53.178;22.058;2023-05-27T05:02:25;11.80;94.30
28247;DHT22;66191;53.178;22.058;2023-05-27T05:05:10;11.90;94.40
28247;DHT22;66191;53.178;22.058;2023-05-27T05:07:45;12.00;94.10
28247;DHT22;66191;53.178;22.058;2023-05-27T05:10:29;12.10;93.80
28247;DHT22;66191;53.178;22.058;2023-05-27T05:13:03;12.10;93.60
28247;DHT22;66191;53.178;22.058;2023-05-27T05:15:37;12.10;93.60
28247;DHT22;66191;53.178;22.058;2023-05-27T05:18:11;12.20;93.30
28247;DHT22;66191;53.178;22.058;2023-05-27T05:20:43;12.40;93.20
28247;DHT22;66191;53.178;22.058;2023-05-27T05:23:19;12.40;93.10
28247;DHT22;66191;53.178;22.058;2023-05-27T05:25:50;12.50;92.40
28247;DHT22;66191;53.178;22.058;2023-05-27T05:28:26;12.60;91.80
28247;DHT22;66191;53.178;22.058;2023-05-27T05:31:01;12.60;91.40
28247;DHT22;66191;53.178;22.058;2023-05-27T05:33:32;12.70;91.40
28247;DHT22;66191;53.178;22.058;2023-05-27T05:36:06;12.80;91.10
28247;DHT22;66191;53.178;22.058;2023-05-27T05:38:58;12.90;88.70
28247;DHT22;66191;53.178;22.058;2023-05-27T05:41:29;13.00;88.10
28247;DHT22;66191;53.178;22.058;2023-05-27T05:44:01;13.00;84.40
28247;DHT22;66191;53.178;22.058;2023-05-27T05:46:35;13.00;84.90
28247;DHT22;66191;53.178;22.058;2023-05-27T05:49:07;13.10;83.80
28247;DHT22;66191;53.178;22.058;2023-05-27T05:51:44;13.10;82.80
28247;DHT22;66191;53.178;22.058;2023-05-27T05:54:15;13.20;82.40
28247;DHT22;66191;53.178;22.058;2023-05-27T05:57:09;13.30;80.00
28247;DHT22;66191;53.178;22.058;2023-05-27T05:59:42;13.40;78.70
28247;DHT22;66191;53.178;22.058;2023-05-27T06:02:16;13.40;76.50
28247;DHT22;66191;53.178;22.058;2023-05-27T06:04:48;13.50;74.10
28247;DHT22;66191;53.178;22.058;2023-05-27T06:07:22;13.50;74.50
28247;DHT22;66191;53.178;22.058;2023-05-27T06:10:02;13.50;72.40
28247;DHT22;66191;53.178;22.058;2023-05-27T06:12:39;13.50;72.50
28247;DHT22;66191;53.178;22.058;2023-05-27T06:15:10;13.60;72.10
28247;DHT22;66191;53.178;22.058;2023-05-27T06:17:49;13.70;70.50
28247;DHT22;66191;53.178;22.058;2023-05-27T06:20:21;13.70;67.30
28247;DHT22;66191;53.178;22.058;2023-05-27T06:22:53;13.80;65.80
28247;DHT22;66191;53.178;22.058;2023-05-27T06:25:44;13.70;65.10
28247;DHT22;66191;53.178;22.058;2023-05-27T06:28:15;13.70;64.60
28247;DHT22;66191;53.178;22.058;2023-05-27T06:30:47;13.80;63.30
28247;DHT22;66191;53.178;22.058;2023-05-27T06:33:22;13.80;61.60
28247;DHT22;66191;53.178;22.058;2023-05-27T06:35:54;13.80;59.90
28247;DHT22;66191;53.178;22.058;2023-05-27T06:38:25;13.80;60.00
28247;DHT22;66191;53.178;22.058;2023-05-27T06:41:02;13.80;59.50
28247;DHT22;66191;53.178;22.058;2023-05-27T06:43:39;13.80;59.60
28247;DHT22;66191;53.178;22.058;2023-05-27T06:46:23;13.90;58.30
28247;DHT22;66191;53.178;22.058;2023-05-27T06:49:05;13.90;57.40
28247;DHT22;66191;53.178;22.058;2023-05-27T06:51:38;13.90;57.10
28247;DHT22;66191;53.178;22.058;2023-05-27T06:54:09;14.00;56.90
28247;DHT22;66191;53.178;22.058;2023-05-27T06:56:43;14.00;56.40
28247;DHT22;66191;53.178;22.058;2023-05-27T06:59:23;14.00;55.70
28247;DHT22;66191;53.178;22.058;2023-05-27T07:01:54;14.10;56.50
28247;DHT22;66191;53.178;22.058;2023-05-27T07:04:30;14.10;55.40
28247;DHT22;66191;53.178;22.058;2023-05-27T07:07:04;14.10;54.60
28247;DHT22;66191;53.178;22.058;2023-05-27T07:09:37;14.20;53.30
28247;DHT22;66191;53.178;22.058;2023-05-27T07:12:13;14.10;52.10
28247;DHT22;66191;53.178;22.058;2023-05-27T07:14:49;14.20;52.30
28247;DHT22;66191;53.178;22.058;2023-05-27T07:17:23;14.20;51.40
28247;DHT22;66191;53.178;22.058;2023-05-27T07:20:00;14.20;50.60
28247;DHT22;66191;53.178;22.058;2023-05-27T07:22:32;14.30;50.50
28247;DHT22;66191;53.178;22.058;2023-05-27T07:25:05;14.30;51.30
28247;DHT22;66191;53.178;22.058;2023-05-27T07:27:38;14.40;50.60
28247;DHT22;66191;53.178;22.058;2023-05-27T07:30:17;14.40;50.00
28247;DHT22;66191;53.178;22.058;2023-05-27T07:32:56;14.40;50.40
28247;DHT22;66191;53.178;22.058;2023-05-27T07:35:30;14.40;50.40
28247;DHT22;66191;53.178;22.058;2023-05-27T07:38:09;14.50;50.10
28247;DHT22;66191;53.178;22.058;2023-05-27T07:40:44;14.50;50.30
28247;DHT22;66191;53.178;22.058;2023-05-27T07:43:17;14.50;49.40
28247;DHT22;66191;53.178;22.058;2023-05-27T07:45:52;14.50;49.80
28247;DHT22;66191;53.178;22.058;2023-05-27T07:48:24;14.50;49.20
28247;DHT22;66191;53.178;22.058;2023-05-27T07:51:00;14.60;50.50
28247;DHT22;66191;53.178;22.058;2023-05-27T07:53:33;14.70;50.10
28247;DHT22;66191;53.178;22.058;2023-05-27T07:56:05;14.70;49.50
28247;DHT22;66191;53.178;22.058;2023-05-27T07:58:36;14.70;49.60
28247;DHT22;66191;53.178;22.058;2023-05-27T08:01:12;14.70;49.90
28247;DHT22;66191;53.178;22.058;2023-05-27T08:03:49;14.80;50.50
28247;DHT22;66191;53.178;22.058;2023-05-27T08:07:00;14.80;48.90
28247;DHT22;66191;53.178;22.058;2023-05-27T08:09:55;14.90;49.90
28247;DHT22;66191;53.178;22.058;2023-05-27T08:12:47;15.00;49.50
28247;DHT22;66191;53.178;22.058;2023-05-27T08:15:31;15.00;48.90
28247;DHT22;66191;53.178;22.058;2023-05-27T08:18:11;15.00;49.30
28247;DHT22;66191;53.178;22.058;2023-05-27T08:21:05;15.10;48.30
28247;DHT22;66191;53.178;22.058;2023-05-27T08:24:00;15.10;48.80
28247;DHT22;66191;53.178;22.058;2023-05-27T08:26:51;15.20;49.30
28247;DHT22;66191;53.178;22.058;2023-05-27T08:29:37;15.30;48.90
28247;DHT22;66191;53.178;22.058;2023-05-27T08:32:36;15.30;48.30
28247;DHT22;66191;53.178;22.058;2023-05-27T08:35:10;15.40;48.60
28247;DHT22;66191;53.178;22.058;2023-05-27T08:37:42;15.40;48.00
28247;DHT22;66191;53.178;22.058;2023-05-27T08:40:19;15.40;48.00
28247;DHT22;66191;53.178;22.058;2023-05-27T08:42:57;15.50;47.20
28247;DHT22;66191;53.178;22.058;2023-05-27T08:45:33;15.40;47.60
28247;DHT22;66191;53.178;22.058;2023-05-27T08:48:10;15.40;47.70
28247;DHT22;66191;53.178;22.058;2023-05-27T08:50:43;15.50;47.20
28247;DHT22;66191;53.178;22.058;2023-05-27T08:53:17;15.50;46.70
28247;DHT22;66191;53.178;22.058;2023-05-27T08:55:56;15.50;47.00
28247;DHT22;66191;53.178;22.058;2023-05-27T08:58:37;15.50;47.20
28247;DHT22;66191;53.178;22.058;2023-05-27T09:01:12;15.50;47.70
28247;DHT22;66191;53.178;22.058;2023-05-27T09:03:52;15.60;46.80
28247;DHT22;66191;53.178;22.058;2023-05-27T09:06:31;15.60;45.80
28247;DHT22;66191;53.178;22.058;2023-05-27T09:09:07;15.60;46.50
28247;DHT22;66191;53.178;22.058;2023-05-27T09:11:42;15.60;46.00
28247;DHT22;66191;53.178;22.058;2023-05-27T09:14:22;15.70;46.80
28247;DHT22;66191;53.178;22.058;2023-05-27T09:16:54;15.70;46.20
28247;DHT22;66191;53.178;22.058;2023-05-27T09:19:29;15.80;46.60
28247;DHT22;66191;53.178;22.058;2023-05-27T09:22:01;15.80;46.30
28247;DHT22;66191;53.178;22.058;2023-05-27T09:24:33;15.80;46.50
28247;DHT22;66191;53.178;22.058;2023-05-27T09:27:07;15.90;47.60
28247;DHT22;66191;53.178;22.058;2023-05-27T09:29:40;15.90;48.00
28247;DHT22;66191;53.178;22.058;2023-05-27T09:32:12;16.00;48.10
28247;DHT22;66191;53.178;22.058;2023-05-27T09:34:46;16.10;48.80
28247;DHT22;66191;53.178;22.058;2023-05-27T09:37:17;16.20;47.90
28247;DHT22;66191;53.178;22.058;2023-05-27T09:39:51;16.20;47.60
28247;DHT22;66191;53.178;22.058;2023-05-27T09:42:25;16.10;47.70
28247;DHT22;66191;53.178;22.058;2023-05-27T09:44:58;16.10;47.40
28247;DHT22;66191;53.178;22.058;2023-05-27T09:47:32;16.10;46.70
28247;DHT22;66191;53.178;22.058;2023-05-27T09:50:10;16.10;47.00
28247;DHT22;66191;53.178;22.058;2023-05-27T09:52:44;16.10;46.90
28247;DHT22;66191;53.178;22.058;2023-05-27T09:55:36;16.10;46.80
28247;DHT22;66191;53.178;22.058;2023-05-27T09:58:12;16.20;46.40
28247;DHT22;66191;53.178;22.058;2023-05-27T10:00:45;16.10;44.60
28247;DHT22;66191;53.178;22.058;2023-05-27T10:03:20;16.20;46.30
28247;DHT22;66191;53.178;22.058;2023-05-27T10:05:55;16.30;45.40
28247;DHT22;66191;53.178;22.058;2023-05-27T10:08:28;16.30;45.00
28247;DHT22;66191;53.178;22.058;2023-05-27T10:11:00;16.30;44.60
28247;DHT22;66191;53.178;22.058;2023-05-27T10:13:34;16.30;45.00
28247;DHT22;66191;53.178;22.058;2023-05-27T10:16:18;16.30;45.50
28247;DHT22;66191;53.178;22.058;2023-05-27T10:18:53;16.40;45.40
28247;DHT22;66191;53.178;22.058;2023-05-27T10:21:28;16.40;44.40
28247;DHT22;66191;53.178;22.058;2023-05-27T10:24:01;16.40;45.20
28247;DHT22;66191;53.178;22.058;2023-05-27T10:26:35;16.50;44.90
28247;DHT22;66191;53.178;22.058;2023-05-27T10:29:10;16.50;44.70
28247;DHT22;66191;53.178;22.058;2023-05-27T10:31:46;16.50;45.00
28247;DHT22;66191;53.178;22.058;2023-05-27T10:34:21;16.60;44.30
28247;DHT22;66191;53.178;22.058;2023-05-27T10:36:59;16.60;44.70
28247;DHT22;66191;53.178;22.058;2023-05-27T10:39:30;16.60;44.80
28247;DHT22;66191;53.178;22.058;2023-05-27T10:42:01;16.60;45.70
28247;DHT22;66191;53.178;22.058;2023-05-27T10:44:36;16.70;45.70
28247;DHT22;66191;53.178;22.058;2023-05-27T10:47:10;16.70;44.80
28247;DHT22;66191;53.178;22.058;2023-05-27T10:49:45;16.70;45.60
28247;DHT22;66191;53.178;22.058;2023-05-27T10:52:17;16.80;44.50
28247;DHT22;66191;53.178;22.058;2023-05-27T10:54:49;16.80;44.70
28247;DHT22;66191;53.178;22.058;2023-05-27T10:57:22;16.80;44.80
28247;DHT22;66191;53.178;22.058;2023-05-27T11:00:00;16.80;44.20
28247;DHT22;66191;53.178;22.058;2023-05-27T11:02:33;16.90;44.30
28247;DHT22;66191;53.178;22.058;2023-05-27T11:05:10;16.80;44.00
28247;DHT22;66191;53.178;22.058;2023-05-27T11:07:42;16.80;44.00
28247;DHT22;66191;53.178;22.058;2023-05-27T11:10:15;16.90;44.30
28247;DHT22;66191;53.178;22.058;2023-05-27T11:12:47;16.80;43.80
28247;DHT22;66191;53.178;22.058;2023-05-27T11:15:22;16.90;44.00
28247;DHT22;66191;53.178;22.058;2023-05-27T11:18:00;16.80;44.00
28247;DHT22;66191;53.178;22.058;2023-05-27T11:20:35;16.90;44.00
28247;DHT22;66191;53.178;22.058;2023-05-27T11:23:07;16.90;44.40
28247;DHT22;66191;53.178;22.058;2023-05-27T11:25:42;16.90;44.50
28247;DHT22;66191;53.178;22.058;2023-05-27T11:28:18;17.00;44.10
28247;DHT22;66191;53.178;22.058;2023-05-27T11:30:58;17.10;44.30
28247;DHT22;66191;53.178;22.058;2023-05-27T11:33:30;17.20;44.60
28247;DHT22;66191;53.178;22.058;2023-05-27T11:36:05;17.10;43.70
28247;DHT22;66191;53.178;22.058;2023-05-27T11:38:51;17.20;44.50
28247;DHT22;66191;53.178;22.058;2023-05-27T11:41:23;17.30;43.60
28247;DHT22;66191;53.178;22.058;2023-05-27T11:44:04;17.30;43.90
28247;DHT22;66191;53.178;22.058;2023-05-27T11:46:40;17.30;43.30
28247;DHT22;66191;53.178;22.058;2023-05-27T11:49:12;17.30;44.10
28247;DHT22;66191;53.178;22.058;2023-05-27T11:51:49;17.30;43.80
28247;DHT22;66191;53.178;22.058;2023-05-27T11:54:23;17.30;42.70
28247;DHT22;66191;53.178;22.058;2023-05-27T11:56:56;17.30;44.00
28247;DHT22;66191;53.178;22.058;2023-05-27T11:59:28;17.40;44.00
28247;DHT22;66191;53.178;22.058;2023-05-27T12:02:02;17.50;44.10
28247;DHT22;66191;53.178;22.058;2023-05-27T12:04:34;17.50;43.40
28247;DHT22;66191;53.178;22.058;2023-05-27T12:07:05;17.50;44.00
28247;DHT22;66191;53.178;22.058;2023-05-27T12:09:47;17.50;43.20
28247;DHT22;66191;53.178;22.058;2023-05-27T12:12:19;17.50;43.70
28247;DHT22;66191;53.178;22.058;2023-05-27T12:14:51;17.60;43.60
28247;DHT22;66191;53.178;22.058;2023-05-27T12:17:25;17.60;43.40
28247;DHT22;66191;53.178;22.058;2023-05-27T12:19:57;17.70;45.10
28247;DHT22;66191;53.178;22.058;2023-05-27T12:22:28;17.60;43.90
28247;DHT22;66191;53.178;22.058;2023-05-27T12:25:00;17.70;44.60
28247;DHT22;66191;53.178;22.058;2023-05-27T12:27:34;17.70;44.00
28247;DHT22;66191;53.178;22.058;2023-05-27T12:30:07;17.60;43.80
28247;DHT22;66191;53.178;22.058;2023-05-27T12:32:41;17.60;44.20
28247;DHT22;66191;53.178;22.058;2023-05-27T12:35:13;17.60;44.10
28247;DHT22;66191;53.178;22.058;2023-05-27T12:37:45;17.60;44.70
28247;DHT22;66191;53.178;22.058;2023-05-27T12:40:17;17.50;44.20
28247;DHT22;66191;53.178;22.058;2023-05-27T12:42:49;17.40;44.40
28247;DHT22;66191;53.178;22.058;2023-05-27T12:45:21;17.40;44.30
28247;DHT22;66191;53.178;22.058;2023-05-27T12:48:01;17.30;44.40
28247;DHT22;66191;53.178;22.058;2023-05-27T12:50:37;17.30;44.40
28247;DHT22;66191;53.178;22.058;2023-05-27T12:53:09;17.30;44.10
28247;DHT22;66191;53.178;22.058;2023-05-27T12:55:44;17.30;45.00
28247;DHT22;66191;53.178;22.058;2023-05-27T12:58:15;17.40;45.10
28247;DHT22;66191;53.178;22.058;2023-05-27T13:00:48;17.40;44.90
28247;DHT22;66191;53.178;22.058;2023-05-27T13:03:22;17.40;44.50
28247;DHT22;66191;53.178;22.058;2023-05-27T13:05:54;17.40;44.70
28247;DHT22;66191;53.178;22.058;2023-05-27T13:08:25;17.40;44.90
28247;DHT22;66191;53.178;22.058;2023-05-27T13:10:57;17.50;44.70
28247;DHT22;66191;53.178;22.058;2023-05-27T13:13:28;17.40;45.30
28247;DHT22;66191;53.178;22.058;2023-05-27T13:16:00;17.40;44.90
28247;DHT22;66191;53.178;22.058;2023-05-27T13:18:37;17.50;45.50
28247;DHT22;66191;53.178;22.058;2023-05-27T13:21:09;17.50;44.80
28247;DHT22;66191;53.178;22.058;2023-05-27T13:23:41;17.50;45.10
28247;DHT22;66191;53.178;22.058;2023-05-27T13:26:15;17.50;45.30
28247;DHT22;66191;53.178;22.058;2023-05-27T13:28:47;17.50;44.60
28247;DHT22;66191;53.178;22.058;2023-05-27T13:31:18;17.50;45.40
28247;DHT22;66191;53.178;22.058;2023-05-27T13:33:52;17.50;45.30
28247;DHT22;66191;53.178;22.058;2023-05-27T13:36:23;17.50;45.70
28247;DHT22;66191;53.178;22.058;2023-05-27T13:38:54;17.50;45.50
28247;DHT22;66191;53.178;22.058;2023-05-27T13:41:26;17.50;44.40
28247;DHT22;66191;53.178;22.058;2023-05-27T13:43:57;17.50;46.60
28247;DHT22;66191;53.178;22.058;2023-05-27T13:46:29;17.60;45.80
28247;DHT22;66191;53.178;22.058;2023-05-27T13:49:05;17.60;45.60
28247;DHT22;66191;53.178;22.058;2023-05-27T13:51:44;17.50;45.20
28247;DHT22;66191;53.178;22.058;2023-05-27T13:54:16;17.50;45.70
28247;DHT22;66191;53.178;22.058;2023-05-27T13:56:47;17.50;45.50
28247;DHT22;66191;53.178;22.058;2023-05-27T13:59:18;17.40;45.60
28247;DHT22;66191;53.178;22.058;2023-05-27T14:01:49;17.40;45.70
28247;DHT22;66191;53.178;22.058;2023-05-27T14:04:24;17.40;46.20
28247;DHT22;66191;53.178;22.058;2023-05-27T14:06:56;17.50;45.90
28247;DHT22;66191;53.178;22.058;2023-05-27T14:09:27;17.50;46.20
28247;DHT22;66191;53.178;22.058;2023-05-27T14:11:59;17.50;46.30
28247;DHT22;66191;53.178;22.058;2023-05-27T14:14:30;17.60;46.20
28247;DHT22;66191;53.178;22.058;2023-05-27T14:17:01;17.60;45.80
28247;DHT22;66191;53.178;22.058;2023-05-27T14:19:35;17.60;45.10
28247;DHT22;66191;53.178;22.058;2023-05-27T14:22:07;17.50;45.60
28247;DHT22;66191;53.178;22.058;2023-05-27T14:24:37;17.50;46.20
28247;DHT22;66191;53.178;22.058;2023-05-27T14:27:08;17.60;45.70
28247;DHT22;66191;53.178;22.058;2023-05-27T14:29:39;17.60;45.60
28247;DHT22;66191;53.178;22.058;2023-05-27T14:32:11;17.60;46.00
28247;DHT22;66191;53.178;22.058;2023-05-27T14:34:44;17.60;46.20
28247;DHT22;66191;53.178;22.058;2023-05-27T14:37:18;17.50;45.80
28247;DHT22;66191;53.178;22.058;2023-05-27T14:39:50;17.60;45.90
28247;DHT22;66191;53.178;22.058;2023-05-27T14:42:23;17.60;45.80
28247;DHT22;66191;53.178;22.058;2023-05-27T14:44:54;17.60;45.60
28247;DHT22;66191;53.178;22.058;2023-05-27T14:47:26;17.60;45.60
28247;DHT22;66191;53.178;22.058;2023-05-27T14:49:59;17.60;45.70
28247;DHT22;66191;53.178;22.058;2023-05-27T14:52:31;17.60;45.70
28247;DHT22;66191;53.178;22.058;2023-05-27T14:55:05;17.60;45.60
28247;DHT22;66191;53.178;22.058;2023-05-27T14:57:37;17.60;45.60
28247;DHT22;66191;53.178;22.058;2023-05-27T15:00:09;17.60;45.60
28247;DHT22;66191;53.178;22.058;2023-05-27T15:02:40;17.60;45.80
28247;DHT22;66191;53.178;22.058;2023-05-27T15:05:14;17.60;46.00
28247;DHT22;66191;53.178;22.058;2023-05-27T15:07:45;17.60;46.40
28247;DHT22;66191;53.178;22.058;2023-05-27T15:10:16;17.60;46.00
28247;DHT22;66191;53.178;22.058;2023-05-27T15:12:48;17.60;46.00
28247;DHT22;66191;53.178;22.058;2023-05-27T15:15:20;17.60;46.70
28247;DHT22;66191;53.178;22.058;2023-05-27T15:17:52;17.60;46.70
28247;DHT22;66191;53.178;22.058;2023-05-27T15:20:26;17.70;46.60
28247;DHT22;66191;53.178;22.058;2023-05-27T15:22:57;17.70;46.40
28247;DHT22;66191;53.178;22.058;2023-05-27T15:25:28;17.70;46.30
28247;DHT22;66191;53.178;22.058;2023-05-27T15:28:11;17.60;46.20
28247;DHT22;66191;53.178;22.058;2023-05-27T15:30:42;17.60;45.80
28247;DHT22;66191;53.178;22.058;2023-05-27T15:33:13;17.60;46.40
28247;DHT22;66191;53.178;22.058;2023-05-27T15:35:48;17.60;46.50
28247;DHT22;66191;53.178;22.058;2023-05-27T15:38:20;17.70;46.80
28247;DHT22;66191;53.178;22.058;2023-05-27T15:40:50;17.70;46.70
28247;DHT22;66191;53.178;22.058;2023-05-27T15:43:21;17.70;46.30
28247;DHT22;66191;53.178;22.058;2023-05-27T15:45:52;17.70;46.70
28247;DHT22;66191;53.178;22.058;2023-05-27T15:48:29;17.80;46.80
28247;DHT22;66191;53.178;22.058;2023-05-27T15:51:03;17.70;47.00
28247;DHT22;66191;53.178;22.058;2023-05-27T15:53:35;17.70;45.70
28247;DHT22;66191;53.178;22.058;2023-05-27T15:56:07;17.70;45.90
28247;DHT22;66191;53.178;22.058;2023-05-27T15:58:39;17.70;46.20
28247;DHT22;66191;53.178;22.058;2023-05-27T16:01:10;17.70;46.60
28247;DHT22;66191;53.178;22.058;2023-05-27T16:03:41;17.70;46.50